sensor_id;sensor_type;location;lat;lon;timestamp;temperature;humidity
11489;DHT22;5801;50.804;12.638;2023-06-19T00:21:44;17.70;1.00
11489;DHT22;5801;50.804;12.638;2023-06-19T00:29:03;17.80;1.00
11489;DHT22;5801;50.804;12.638;2023-06-19T00:41:17;18.00;99.90
11489;DHT22;5801;50.804;12.638;2023-06-19T00:46:10;17.60;1.00
11489;DHT22;5801;50.804;12.638;2023-06-19T00:48:36;17.90;1.00
11489;DHT22;5801;50.804;12.638;2023-06-19T00:55:56;17.50;99.90
11489;DHT22;5801;50.804;12.638;2023-06-19T00:58:21;17.50;99.90
11489;DHT22;5801;50.804;12.638;2023-06-19T01:00:48;17.60;99.90
11489;DHT22;5801;50.804;12.638;2023-06-19T01:05:39;17.10;1.00
11489;DHT22;5801;50.804;12.638;2023-06-19T01:10:58;17.10;99.90
11489;DHT22;5801;50.804;12.638;2023-06-19T01:13:41;17.30;1.00
11489;DHT22;5801;50.804;12.638;2023-06-19T01:21:16;18.10;99.90
11489;DHT22;5801;50.804;12.638;2023-06-19T01:23:43;17.80;99.90
11489;DHT22;5801;50.804;12.638;2023-06-19T01:26:09;18.00;99.90
11489;DHT22;5801;50.804;12.638;2023-06-19T01:28:36;17.90;1.00
11489;DHT22;5801;50.804;12.638;2023-06-19T01:31:08;17.80;1.00
11489;DHT22;5801;50.804;12.638;2023-06-19T01:33:36;18.10;99.90
11489;DHT22;5801;50.804;12.638;2023-06-19T01:36:03;17.90;99.90
11489;DHT22;5801;50.804;12.638;2023-06-19T01:38:31;17.90;99.90
11489;DHT22;5801;50.804;12.638;2023-06-19T01:40:57;18.20;99.90
11489;DHT22;5801;50.804;12.638;2023-06-19T01:43:25;18.40;1.00
11489;DHT22;5801;50.804;12.638;2023-06-19T01:45:51;18.10;99.90
11489;DHT22;5801;50.804;12.638;2023-06-19T01:50:47;18.30;99.90
11489;DHT22;5801;50.804;12.638;2023-06-19T01:53:13;18.40;99.90
11489;DHT22;5801;50.804;12.638;2023-06-19T01:55:39;18.50;99.90
11489;DHT22;5801;50.804;12.638;2023-06-19T02:07:52;18.20;1.00
11489;DHT22;5801;50.804;12.638;2023-06-19T02:29:45;19.00;1.00
11489;DHT22;5801;50.804;12.638;2023-06-19T02:37:03;18.80;99.90
11489;DHT22;5801;50.804;12.638;2023-06-19T02:39:29;18.80;99.90
11489;DHT22;5801;50.804;12.638;2023-06-19T02:54:04;18.90;1.00
11489;DHT22;5801;50.804;12.638;2023-06-19T03:03:49;19.30;99.90
11489;DHT22;5801;50.804;12.638;2023-06-19T03:13:51;18.60;1.00
11489;DHT22;5801;50.804;12.638;2023-06-19T03:18:44;19.00;99.90
11489;DHT22;5801;50.804;12.638;2023-06-19T03:21:10;18.90;99.90
11489;DHT22;5801;50.804;12.638;2023-06-19T03:30:54;19.20;1.00
11489;DHT22;5801;50.804;12.638;2023-06-19T03:33:20;19.30;1.00
11489;DHT22;5801;50.804;12.638;2023-06-19T03:35:45;19.10;99.90
11489;DHT22;5801;50.804;12.638;2023-06-19T03:38:11;19.40;1.00
11489;DHT22;5801;50.804;12.638;2023-06-19T03:40:36;19.30;1.00
11489;DHT22;5801;50.804;12.638;2023-06-19T03:43:02;19.20;99.90
11489;DHT22;5801;50.804;12.638;2023-06-19T03:52:45;19.10;1.00
11489;DHT22;5801;50.804;12.638;2023-06-19T03:55:11;19.20;99.90
11489;DHT22;5801;50.804;12.638;2023-06-19T04:00:02;19.40;1.00
11489;DHT22;5801;50.804;12.638;2023-06-19T04:07:24;19.20;99.90
11489;DHT22;5801;50.804;12.638;2023-06-19T04:09:50;19.20;1.00
11489;DHT22;5801;50.804;12.638;2023-06-19T04:21:59;19.30;99.90
11489;DHT22;5801;50.804;12.638;2023-06-19T04:31:46;19.30;99.90
11489;DHT22;5801;50.804;12.638;2023-06-19T04:34:16;19.40;99.90
11489;DHT22;5801;50.804;12.638;2023-06-19T04:44:04;19.60;99.90
11489;DHT22;5801;50.804;12.638;2023-06-19T04:56:15;20.00;99.90
11489;DHT22;5801;50.804;12.638;2023-06-19T04:58:41;19.90;99.90
11489;DHT22;5801;50.804;12.638;2023-06-19T05:01:12;20.00;99.90
11489;DHT22;5801;50.804;12.638;2023-06-19T05:18:16;20.00;99.90
11489;DHT22;5801;50.804;12.638;2023-06-19T05:32:51;19.80;1.00
11489;DHT22;5801;50.804;12.638;2023-06-19T05:37:42;20.00;1.00
11489;DHT22;5801;50.804;12.638;2023-06-19T05:40:09;20.20;1.00
11489;DHT22;5801;50.804;12.638;2023-06-19T05:42:35;20.10;99.90
11489;DHT22;5801;50.804;12.638;2023-06-19T05:45:01;19.90;99.90
11489;DHT22;5801;50.804;12.638;2023-06-19T05:47:28;19.80;1.00
11489;DHT22;5801;50.804;12.638;2023-06-19T05:54:47;20.20;99.90
11489;DHT22;5801;50.804;12.638;2023-06-19T05:57:12;20.00;1.00
11489;DHT22;5801;50.804;12.638;2023-06-19T06:02:04;20.40;1.00
11489;DHT22;5801;50.804;12.638;2023-06-19T06:16:41;20.30;1.00
11489;DHT22;5801;50.804;12.638;2023-06-19T06:19:06;20.40;1.00
11489;DHT22;5801;50.804;12.638;2023-06-19T06:24:00;20.30;1.00
11489;DHT22;5801;50.804;12.638;2023-06-19T06:28:53;20.50;1.00
11489;DHT22;5801;50.804;12.638;2023-06-19T06:33:44;20.30;1.00
11489;DHT22;5801;50.804;12.638;2023-06-19T06:36:10;20.60;1.00
11489;DHT22;5801;50.804;12.638;2023-06-19T06:38:35;20.10;1.00
11489;DHT22;5801;50.804;12.638;2023-06-19T06:48:20;20.60;99.90
11489;DHT22;5801;50.804;12.638;2023-06-19T06:50:46;20.50;1.00
11489;DHT22;5801;50.804;12.638;2023-06-19T06:55:37;20.50;1.00
11489;DHT22;5801;50.804;12.638;2023-06-19T07:10:14;20.60;1.00
11489;DHT22;5801;50.804;12.638;2023-06-19T07:12:47;20.50;99.90
11489;DHT22;5801;50.804;12.638;2023-06-19T07:15:12;20.40;1.00
11489;DHT22;5801;50.804;12.638;2023-06-19T07:17:38;20.10;1.00
11489;DHT22;5801;50.804;12.638;2023-06-19T07:20:04;20.60;99.90
11489;DHT22;5801;50.804;12.638;2023-06-19T07:22:30;20.40;1.00
11489;DHT22;5801;50.804;12.638;2023-06-19T07:32:13;20.30;1.00
11489;DHT22;5801;50.804;12.638;2023-06-19T07:34:39;20.40;1.00
11489;DHT22;5801;50.804;12.638;2023-06-19T07:39:30;20.10;1.00
11489;DHT22;5801;50.804;12.638;2023-06-19T07:46:48;20.00;1.00
11489;DHT22;5801;50.804;12.638;2023-06-19T07:49:13;20.50;1.00
11489;DHT22;5801;50.804;12.638;2023-06-19T07:51:39;20.20;1.00
11489;DHT22;5801;50.804;12.638;2023-06-19T07:56:30;20.00;1.00
11489;DHT22;5801;50.804;12.638;2023-06-19T08:06:15;20.90;1.00
11489;DHT22;5801;50.804;12.638;2023-06-19T08:08:40;21.00;1.00
11489;DHT22;5801;50.804;12.638;2023-06-19T09:29:14;27.40;99.90
11489;DHT22;5801;50.804;12.638;2023-06-19T09:36:35;28.00;99.90
11489;DHT22;5801;50.804;12.638;2023-06-19T09:41:29;28.60;99.90
11489;DHT22;5801;50.804;12.638;2023-06-19T09:43:55;28.80;99.90
11489;DHT22;5801;50.804;12.638;2023-06-19T09:46:28;28.70;99.90
11489;DHT22;5801;50.804;12.638;2023-06-19T09:51:30;28.60;99.90
11489;DHT22;5801;50.804;12.638;2023-06-19T10:33:24;28.70;99.90
11489;DHT22;5801;50.804;12.638;2023-06-19T10:35:50;28.70;99.90
11489;DHT22;5801;50.804;12.638;2023-06-19T10:38:16;28.40;99.90
11489;DHT22;5801;50.804;12.638;2023-06-19T10:40:42;29.00;99.90
11489;DHT22;5801;50.804;12.638;2023-06-19T10:45:34;29.80;99.90
11489;DHT22;5801;50.804;12.638;2023-06-19T10:48:02;31.00;99.90
11489;DHT22;5801;50.804;12.638;2023-06-19T10:50:29;31.00;99.90
11489;DHT22;5801;50.804;12.638;2023-06-19T10:52:54;31.10;99.90
11489;DHT22;5801;50.804;12.638;2023-06-19T10:55:20;31.00;99.90
11489;DHT22;5801;50.804;12.638;2023-06-19T10:57:47;31.60;99.90
11489;DHT22;5801;50.804;12.638;2023-06-19T11:00:23;30.90;99.90
11489;DHT22;5801;50.804;12.638;2023-06-19T11:02:49;30.70;99.90
11489;DHT22;5801;50.804;12.638;2023-06-19T11:05:14;30.10;99.90
11489;DHT22;5801;50.804;12.638;2023-06-19T11:07:40;30.00;99.90
11489;DHT22;5801;50.804;12.638;2023-06-19T11:10:06;29.10;99.90
11489;DHT22;5801;50.804;12.638;2023-06-19T11:12:32;28.40;99.90
11489;DHT22;5801;50.804;12.638;2023-06-19T11:15:03;28.10;99.90
11489;DHT22;5801;50.804;12.638;2023-06-19T11:17:30;27.70;99.90
11489;DHT22;5801;50.804;12.638;2023-06-19T11:19:57;27.60;99.90
11489;DHT22;5801;50.804;12.638;2023-06-19T11:22:36;27.50;99.90
11489;DHT22;5801;50.804;12.638;2023-06-19T11:25:03;27.50;99.90
11489;DHT22;5801;50.804;12.638;2023-06-19T11:27:30;27.40;99.90
11489;DHT22;5801;50.804;12.638;2023-06-19T11:29:57;27.20;99.90
11489;DHT22;5801;50.804;12.638;2023-06-19T11:32:24;26.90;99.90
11489;DHT22;5801;50.804;12.638;2023-06-19T11:34:56;26.80;99.90
11489;DHT22;5801;50.804;12.638;2023-06-19T11:37:22;26.80;99.90
11489;DHT22;5801;50.804;12.638;2023-06-19T11:39:49;26.70;99.90
11489;DHT22;5801;50.804;12.638;2023-06-19T14:25:54;27.70;99.90
11489;DHT22;5801;50.804;12.638;2023-06-19T14:28:19;27.80;99.90
11489;DHT22;5801;50.804;12.638;2023-06-19T14:30:45;27.90;99.90
11489;DHT22;5801;50.804;12.638;2023-06-19T14:33:11;28.00;99.90
11489;DHT22;5801;50.804;12.638;2023-06-19T14:35:41;28.00;99.90
11489;DHT22;5801;50.804;12.638;2023-06-19T14:38:06;28.00;99.90
11489;DHT22;5801;50.804;12.638;2023-06-19T14:40:32;28.10;99.90
11489;DHT22;5801;50.804;12.638;2023-06-19T14:42:57;28.20;99.90
11489;DHT22;5801;50.804;12.638;2023-06-19T14:45:23;28.20;99.90
11489;DHT22;5801;50.804;12.638;2023-06-19T14:47:48;28.30;99.90
11489;DHT22;5801;50.804;12.638;2023-06-19T14:50:14;28.30;99.90
11489;DHT22;5801;50.804;12.638;2023-06-19T14:52:39;28.30;99.90
11489;DHT22;5801;50.804;12.638;2023-06-19T14:55:05;28.30;99.90
11489;DHT22;5801;50.804;12.638;2023-06-19T14:57:31;28.10;99.90
11489;DHT22;5801;50.804;12.638;2023-06-19T14:59:56;28.00;99.90
11489;DHT22;5801;50.804;12.638;2023-06-19T15:02:22;27.90;99.90
11489;DHT22;5801;50.804;12.638;2023-06-19T15:04:47;27.70;99.90
11489;DHT22;5801;50.804;12.638;2023-06-19T15:07:13;27.70;99.90
11489;DHT22;5801;50.804;12.638;2023-06-19T15:09:38;27.80;99.90
11489;DHT22;5801;50.804;12.638;2023-06-19T15:12:04;27.80;99.90
11489;DHT22;5801;50.804;12.638;2023-06-19T15:14:29;27.70;99.90
11489;DHT22;5801;50.804;12.638;2023-06-19T15:16:55;27.60;99.90
11489;DHT22;5801;50.804;12.638;2023-06-19T15:19:20;27.60;99.90
11489;DHT22;5801;50.804;12.638;2023-06-19T15:21:46;27.50;99.90
11489;DHT22;5801;50.804;12.638;2023-06-19T15:24:11;27.50;99.90
11489;DHT22;5801;50.804;12.638;2023-06-19T15:26:37;27.50;99.90
11489;DHT22;5801;50.804;12.638;2023-06-19T15:29:02;27.40;99.90
11489;DHT22;5801;50.804;12.638;2023-06-19T15:31:28;27.50;99.90
11489;DHT22;5801;50.804;12.638;2023-06-19T15:33:54;27.60;99.90
11489;DHT22;5801;50.804;12.638;2023-06-19T15:36:19;27.60;99.90
11489;DHT22;5801;50.804;12.638;2023-06-19T15:38:45;27.50;99.90
11489;DHT22;5801;50.804;12.638;2023-06-19T15:41:10;27.70;99.90
11489;DHT22;5801;50.804;12.638;2023-06-19T15:43:36;27.40;99.90
11489;DHT22;5801;50.804;12.638;2023-06-19T15:46:01;27.50;99.90
11489;DHT22;5801;50.804;12.638;2023-06-19T15:48:29;27.50;99.90
11489;DHT22;5801;50.804;12.638;2023-06-19T15:53:21;27.60;99.90
11489;DHT22;5801;50.804;12.638;2023-06-19T15:55:46;27.70;99.90
11489;DHT22;5801;50.804;12.638;2023-06-19T15:58:12;27.60;99.90
11489;DHT22;5801;50.804;12.638;2023-06-19T16:00:38;27.60;99.90
11489;DHT22;5801;50.804;12.638;2023-06-19T16:03:03;27.50;99.90
11489;DHT22;5801;50.804;12.638;2023-06-19T16:05:30;27.50;99.90
11489;DHT22;5801;50.804;12.638;2023-06-19T16:07:56;27.50;99.90
11489;DHT22;5801;50.804;12.638;2023-06-19T16:10:21;27.50;99.90
11489;DHT22;5801;50.804;12.638;2023-06-19T16:12:47;27.50;99.90
11489;DHT22;5801;50.804;12.638;2023-06-19T16:15:14;27.40;99.90
11489;DHT22;5801;50.804;12.638;2023-06-19T16:17:42;27.40;99.90
11489;DHT22;5801;50.804;12.638;2023-06-19T16:20:09;27.30;99.90
11489;DHT22;5801;50.804;12.638;2023-06-19T16:22:35;27.40;99.90
11489;DHT22;5801;50.804;12.638;2023-06-19T16:25:00;27.40;99.90
11489;DHT22;5801;50.804;12.638;2023-06-19T16:27:26;27.30;99.90
11489;DHT22;5801;50.804;12.638;2023-06-19T16:29:51;27.30;99.90
11489;DHT22;5801;50.804;12.638;2023-06-19T16:32:17;27.30;99.90
11489;DHT22;5801;50.804;12.638;2023-06-19T16:34:42;27.30;99.90
11489;DHT22;5801;50.804;12.638;2023-06-19T16:37:08;27.20;99.90
11489;DHT22;5801;50.804;12.638;2023-06-19T16:39:34;27.20;99.90
11489;DHT22;5801;50.804;12.638;2023-06-19T16:41:59;27.10;99.90
11489;DHT22;5801;50.804;12.638;2023-06-19T16:44:24;27.10;99.90
11489;DHT22;5801;50.804;12.638;2023-06-19T16:46:50;27.00;99.90
11489;DHT22;5801;50.804;12.638;2023-06-19T16:49:15;27.00;99.90
11489;DHT22;5801;50.804;12.638;2023-06-19T16:51:41;27.00;99.90
11489;DHT22;5801;50.804;12.638;2023-06-19T16:54:06;27.00;99.90
11489;DHT22;5801;50.804;12.638;2023-06-19T16:56:32;26.90;99.90
11489;DHT22;5801;50.804;12.638;2023-06-19T16:58:57;26.90;99.90
11489;DHT22;5801;50.804;12.638;2023-06-19T17:01:23;26.80;99.90
11489;DHT22;5801;50.804;12.638;2023-06-19T17:03:49;26.80;99.90
11489;DHT22;5801;50.804;12.638;2023-06-19T17:06:14;26.80;99.90
11489;DHT22;5801;50.804;12.638;2023-06-19T17:08:40;26.80;99.90
11489;DHT22;5801;50.804;12.638;2023-06-19T17:13:31;26.60;99.90
11489;DHT22;5801;50.804;12.638;2023-06-19T17:15:56;26.50;99.90
11489;DHT22;5801;50.804;12.638;2023-06-19T17:18:22;26.50;99.90
11489;DHT22;5801;50.804;12.638;2023-06-19T17:20:47;26.50;99.90
11489;DHT22;5801;50.804;12.638;2023-06-19T17:23:13;26.50;99.90
11489;DHT22;5801;50.804;12.638;2023-06-19T17:28:05;26.70;99.90
11489;DHT22;5801;50.804;12.638;2023-06-19T17:30:30;26.40;99.90
11489;DHT22;5801;50.804;12.638;2023-06-19T17:32:56;26.30;99.90
11489;DHT22;5801;50.804;12.638;2023-06-19T17:35:21;26.30;99.90
11489;DHT22;5801;50.804;12.638;2023-06-19T17:42:40;26.10;99.90
11489;DHT22;5801;50.804;12.638;2023-06-19T17:45:06;26.10;99.90
11489;DHT22;5801;50.804;12.638;2023-06-19T17:54:50;25.70;99.90
11489;DHT22;5801;50.804;12.638;2023-06-19T17:57:17;25.80;99.90
11489;DHT22;5801;50.804;12.638;2023-06-19T19:10:26;23.20;1.00
11489;DHT22;5801;50.804;12.638;2023-06-19T19:20:10;22.80;99.90
11489;DHT22;5801;50.804;12.638;2023-06-19T19:37:14;22.10;1.00
11489;DHT22;5801;50.804;12.638;2023-06-19T19:46:58;22.10;1.00
11489;DHT22;5801;50.804;12.638;2023-06-19T20:08:52;21.20;1.00
11489;DHT22;5801;50.804;12.638;2023-06-19T20:35:37;20.40;1.00
11489;DHT22;5801;50.804;12.638;2023-06-19T20:47:49;20.50;1.00
11489;DHT22;5801;50.804;12.638;2023-06-19T21:02:28;20.00;1.00
11489;DHT22;5801;50.804;12.638;2023-06-19T21:09:46;19.50;1.00
11489;DHT22;5801;50.804;12.638;2023-06-19T21:21:55;19.70;1.00
11489;DHT22;5801;50.804;12.638;2023-06-19T21:34:06;19.30;1.00
11489;DHT22;5801;50.804;12.638;2023-06-19T21:43:49;19.50;1.00
11489;DHT22;5801;50.804;12.638;2023-06-19T21:48:41;19.50;1.00
11489;DHT22;5801;50.804;12.638;2023-06-19T21:51:06;19.40;1.00
11489;DHT22;5801;50.804;12.638;2023-06-19T22:00:51;19.20;1.00
11489;DHT22;5801;50.804;12.638;2023-06-19T22:10:34;19.00;1.00
11489;DHT22;5801;50.804;12.638;2023-06-19T22:15:25;19.40;1.00
11489;DHT22;5801;50.804;12.638;2023-06-19T22:22:47;19.00;1.00
11489;DHT22;5801;50.804;12.638;2023-06-19T22:25:14;19.00;1.00
11489;DHT22;5801;50.804;12.638;2023-06-19T22:30:11;18.70;1.00
11489;DHT22;5801;50.804;12.638;2023-06-19T22:32:37;18.80;1.00
11489;DHT22;5801;50.804;12.638;2023-06-19T22:35:02;18.60;1.00
11489;DHT22;5801;50.804;12.638;2023-06-19T22:37:28;18.70;1.00
11489;DHT22;5801;50.804;12.638;2023-06-19T22:39:53;19.00;1.00
11489;DHT22;5801;50.804;12.638;2023-06-19T22:42:19;18.90;1.00
11489;DHT22;5801;50.804;12.638;2023-06-19T22:44:44;18.80;1.00
11489;DHT22;5801;50.804;12.638;2023-06-19T22:47:10;18.40;1.00
11489;DHT22;5801;50.804;12.638;2023-06-19T22:49:36;18.50;7.40
11489;DHT22;5801;50.804;12.638;2023-06-19T22:52:02;18.60;7.10
11489;DHT22;5801;50.804;12.638;2023-06-19T22:54:28;18.60;14.60
11489;DHT22;5801;50.804;12.638;2023-06-19T22:56:54;18.80;1.00
11489;DHT22;5801;50.804;12.638;2023-06-19T22:59:20;18.50;1.00
11489;DHT22;5801;50.804;12.638;2023-06-19T23:01:45;18.80;17.50
11489;DHT22;5801;50.804;12.638;2023-06-19T23:04:11;18.70;17.40
11489;DHT22;5801;50.804;12.638;2023-06-19T23:06:36;18.80;19.50
11489;DHT22;5801;50.804;12.638;2023-06-19T23:09:11;18.60;21.90
11489;DHT22;5801;50.804;12.638;2023-06-19T23:11:38;18.80;15.80
11489;DHT22;5801;50.804;12.638;2023-06-19T23:14:04;18.70;29.50
11489;DHT22;5801;50.804;12.638;2023-06-19T23:16:30;18.60;30.50
11489;DHT22;5801;50.804;12.638;2023-06-19T23:18:55;18.50;30.00
11489;DHT22;5801;50.804;12.638;2023-06-19T23:21:21;18.10;99.90
11489;DHT22;5801;50.804;12.638;2023-06-19T23:23:46;18.10;99.90
11489;DHT22;5801;50.804;12.638;2023-06-19T23:26:13;18.00;99.90
11489;DHT22;5801;50.804;12.638;2023-06-19T23:28:41;17.90;99.90
11489;DHT22;5801;50.804;12.638;2023-06-19T23:33:33;17.80;99.90
11489;DHT22;5801;50.804;12.638;2023-06-19T23:35:58;18.20;99.90
11489;DHT22;5801;50.804;12.638;2023-06-19T23:38:24;18.10;99.90
11489;DHT22;5801;50.804;12.638;2023-06-19T23:40:51;17.90;99.90
11489;DHT22;5801;50.804;12.638;2023-06-19T23:43:17;18.10;99.90
11489;DHT22;5801;50.804;12.638;2023-06-19T23:45:43;18.30;99.90
11489;DHT22;5801;50.804;12.638;2023-06-19T23:48:09;18.60;99.90
11489;DHT22;5801;50.804;12.638;2023-06-19T23:53:00;18.10;99.90
11489;DHT22;5801;50.804;12.638;2023-06-19T23:55:25;18.40;99.90
11489;DHT22;5801;50.804;12.638;2023-06-19T23:57:51;18.10;99.90
